This is the latest recevied weather packets stored in our database for station/object KD7AWQ. If no packets are shown the sender has not sent any weather packets the latest 1 day(s).
| Time | Temp. | Humidity | Pressure | Rain* | Wind** | Luminosity | Snow |
|---|---|---|---|---|---|---|---|
| 1778069271 | 10.56° C | 47% | 1184.1 hPa | 0 mm | 2.24 m/s, 331° | 0 W/m² | - |
| 1778068969 | 10.56° C | 47% | 1183.9 hPa | 0 mm | 2.24 m/s, 309° | 0 W/m² | - |
| 1778068666 | 10.56° C | 46% | 1184.3 hPa | 0 mm | 1.79 m/s, 322° | 0 W/m² | - |
| 1778068364 | 10.56° C | 46% | 1184.4 hPa | 0 mm | 2.68 m/s, 302° | 0 W/m² | - |
| 1778068062 | 10.56° C | 45% | 1184.1 hPa | 0 mm | 2.24 m/s, 321° | 0 W/m² | - |
| 1778067759 | 10.56° C | 45% | 1184.1 hPa | 0 mm | 2.24 m/s, 314° | 0 W/m² | - |
| 1778067458 | 10.56° C | 44% | 1184.1 hPa | 0 mm | 1.79 m/s, 322° | 0 W/m² | - |
| 1778067155 | 10.56° C | 45% | 1184.1 hPa | 0 mm | 2.68 m/s, 232° | 0 W/m² | - |
| 1778066851 | 11.11° C | 44% | 1184.1 hPa | 0 mm | 2.24 m/s, 340° | 0 W/m² | - |
| 1778066548 | 11.11° C | 44% | 1184.1 hPa | 0 mm | 3.13 m/s, 318° | 0 W/m² | - |
| 1778066246 | 10.56° C | 44% | 1184.3 hPa | 0 mm | 2.24 m/s, 315° | 0 W/m² | - |
| 1778065944 | 11.11° C | 44% | 1184.1 hPa | 0 mm | 3.13 m/s, 308° | 0 W/m² | - |
| 1778065640 | 11.11° C | 44% | 1184.1 hPa | 0 mm | 2.68 m/s, 291° | 0 W/m² | - |
| 1778065338 | 11.67° C | 42% | 1184 hPa | 0 mm | 3.13 m/s, 279° | 0 W/m² | - |
| 1778065034 | 11.11° C | 43% | 1184 hPa | 0 mm | 2.24 m/s, 284° | 0 W/m² | - |
| 1778064731 | 11.11° C | 44% | 1183.9 hPa | 0 mm | 1.79 m/s, 265° | 0 W/m² | - |
| 1778064430 | 11.11° C | 43% | 1184.1 hPa | 0 mm | 2.68 m/s, 301° | 0 W/m² | - |
| 1778064127 | 10.56° C | 46% | 1183.9 hPa | 0 mm | 1.79 m/s, 289° | 0 W/m² | - |
| 1778063824 | 10.56° C | 48% | 1183.9 hPa | 0 mm | 3.13 m/s, 263° | 0 W/m² | - |
| 1778063521 | 10° C | 48% | 1183.9 hPa | 0 mm | 2.24 m/s, 265° | 0 W/m² | - |
| 1778063219 | 11.11° C | 48% | 1184 hPa | 0 mm | 2.68 m/s, 260° | 0 W/m² | - |
| 1778062916 | 11.11° C | 45% | 1183.8 hPa | 0 mm | 2.68 m/s, 252° | 0 W/m² | - |
| 1778062613 | 11.67° C | 43% | 1183.8 hPa | 0 mm | 1.34 m/s, 286° | 0 W/m² | - |
| 1778062310 | 11.11° C | 45% | 1183.8 hPa | 0 mm | 1.79 m/s, 251° | 0 W/m² | - |
| 1778062008 | 11.67° C | 42% | 1183.7 hPa | 0 mm | 0.89 m/s, 326° | 0 W/m² | - |
* Rain latest hour (hover to see other rain measurements)
** Current wind speed in m/s (hover to see current wind gust speed)